Nearby METAR Reports

 

KOAK - Oakland, California, USA
Distance from station: SSW 6mi, 9km
Updated: Mon, 20-Aug-2018 11:01am PDT
Overcast
Overcast
 Wind from W
Wind: W 10 mph , 17 km/h
Temperature: 63°F , 17°C
Dew Point: 54°F , 12°C
Humidity: 73%
Barometer: 29.94 inHg , 1013.9 hPa
Clouds: Overcast
Visibility: 10 miles , 16 km
Cloud details: Overcast 1500 ft
2018/08/20 18:01 KOAK 201801Z 28009KT 10SM OVC015 17/12 A2994 RMK AO2 T01670122
KHWD - Hayward, California, USA
Distance from station: SSE 8mi, 12km
Updated: Mon, 20-Aug-2018 10:54am PDT
Overcast
Overcast
 Wind from varies
Wind: varies 3 mph , 6 km/h
Temperature: 64°F , 18°C
Dew Point: 54°F , 12°C
Humidity: 68%
Barometer: 29.93 inHg , 1013.5 hPa
Clouds: Overcast
Visibility: 7 miles , 11 km
Cloud details: Overcast 1500 ft
2018/08/20 17:54 KHWD 201754Z VRB03KT 7SM OVC015 18/12 A2993 RMK AO2 SLP145 T01780122 10178 20156 51007
KSFO - San Francisco, California, USA
Distance from station: SW 15mi, 25km
Updated: Mon, 20-Aug-2018 10:56am PDT
Few Clouds
Few Clouds
 Wind from NNW
Wind: NNW 13 mph , 20 km/h
Temperature: 63°F , 17°C
Dew Point: 54°F , 12°C
Humidity: 73%
Barometer: 29.92 inHg , 1013.2 hPa
Clouds: Few Clouds
Visibility: 10 miles , 16 km
Cloud details: Few Clouds 700 ft
Few Clouds 2000 ft
2018/08/20 17:56 KSFO 201756Z 33011KT 10SM FEW007 FEW020 17/12 A2992 RMK AO2 SLP133 T01720117 10183 20128 51005
 
KCCR - Concord, California, USA
Distance from station: NNE 17mi, 27km
Updated: Mon, 20-Aug-2018 10:53am PDT
Clear
Clear
 Wind from SSW
Wind: SSW 13 mph , 20 km/h
Temperature: 72°F , 22°C
Dew Point: 52°F , 11°C
Humidity: 50%
Barometer: 29.90 inHg , 1012.5 hPa
Clouds: Clear
Visibility: 10 miles , 16 km
2018/08/20 17:53 KCCR 201753Z 20011KT 10SM CLR 22/11 A2990 RMK AO2 SLP111 T02170111 10217 20156 51003
KSQL - San Carlos Airpo, California, USA
Distance from station: SSW 18mi, 29km
Updated: Mon, 20-Aug-2018 10:55am PDT
Haze, Partly cloudy
Haze, Partly cloudy
 Wind from NE
Wind: NE 6 mph , 9 km/h
Temperature: 64°F , 18°C
Dew Point: 54°F , 12°C
Humidity: 68%
Barometer: 29.93 inHg , 1013.5 hPa
Summary: Haze
Clouds: Partly cloudy
Visibility: 8 miles , 13 km
Cloud details: Partly cloudy 1800 ft
2018/08/20 17:55 KSQL 201755Z 04005KT 8SM HZ SCT018 18/12 A2993
KLVK - Livermore, California, USA
Distance from station: ESE 20mi, 31km
Updated: Mon, 20-Aug-2018 10:53am PDT
Haze, Smoke, Clear
Haze, Smoke, Clear
 Wind from WSW
Wind: WSW 6 mph , 9 km/h
Temperature: 70°F , 21°C
Dew Point: 54°F , 12°C
Humidity: 57%
Barometer: 29.90 inHg , 1012.5 hPa
Summary: Haze, Smoke
Clouds: Clear
Visibility: 5 miles , 8 km
2018/08/20 17:53 KLVK 201753Z 25005KT 5SM HZ FU CLR 21/12 A2990 RMK AO2 SLP123 T02060122 10206 20133 50001
 
KPAO - Palo Alto, California, USA
Distance from station: S 21mi, 34km
Updated: Mon, 20-Aug-2018 10:36am PDT
Haze, Few clouds
Haze, Few clouds
 Wind from ENE
Wind: ENE 8 mph , 13 km/h
Temperature: 64°F , 18°C
Dew Point: 55°F , 13°C
Humidity: 73%
Barometer: 29.94 inHg , 1013.9 hPa
Summary: Haze
Clouds: Few Clouds
Visibility: 5 miles , 8 km
Cloud details: Few Clouds 1300 ft
2018/08/20 17:36 KPAO 201736Z 06007KT 5SM HZ FEW013 18/13 A2994
KHAF - Half Moon Bay, California, USA
Distance from station: SW 25mi, 41km
Updated: Mon, 20-Aug-2018 11:00am PDT
Mist, Mostly cloudy
Mist, Mostly cloudy
 Wind from SSW
Wind: SSW 6 mph , 9 km/h
Temperature: 57°F , 14°C
Dew Point: 54°F , 12°C
Humidity: 88%
Barometer: 29.97 inHg , 1014.9 hPa
Summary: Mist
Clouds: Mostly cloudy
Visibility: 4 miles , 6 km
Cloud details: Mostly cloudy 800 ft
2018/08/20 18:00 KHAF 201800Z AUTO 20005KT 4SM BR BKN008 14/12 A2997 RMK AO2
KNUQ - Moffett Nas/Mtn, California, USA
Distance from station: SSE 26mi, 42km
Updated: Mon, 20-Aug-2018 11:03am PDT
Haze, Clear
Haze, Clear
 Wind from varies
Wind: varies 3 mph , 6 km/h
Temperature: 66°F , 19°C
Dew Point: 54°F , 12°C
Humidity: 64%
Barometer: 29.93 inHg , 1013.5 hPa
Summary: Haze
Clouds: Clear
Visibility: 5 miles , 8 km
2018/08/20 18:03 KNUQ 201803Z VRB03KT 5SM HZ CLR 19/12 A2993 RMK AO2 T01890122 $
 
KAPC - Napa, California, USA
Distance from station: NNW 30mi, 49km
Updated: Mon, 20-Aug-2018 10:54am PDT
Overcast
Overcast
 Wind from SSW
Wind: SSW 13 mph , 20 km/h
Temperature: 61°F , 16°C
Dew Point: 54°F , 12°C
Humidity: 77%
Barometer: 29.93 inHg , 1013.5 hPa
Clouds: Overcast
Visibility: 9 miles , 14 km
Cloud details: Overcast 900 ft
2018/08/20 17:54 KAPC 201754Z 21011KT 9SM OVC009 16/12 A2993 RMK AO2 SLP126 T01560122 10156 20139 51007
KSJC - San Jose, California, USA
Distance from station: SSE 31mi, 50km
Updated: Mon, 20-Aug-2018 10:53am PDT
Few Clouds
Few Clouds
 Wind from calm
Wind: Calm
Temperature: 64°F , 18°C
Dew Point: 54°F , 12°C
Humidity: 68%
Barometer: 29.93 inHg , 1013.5 hPa
Clouds: Few Clouds
Visibility: 7 miles , 11 km
Cloud details: Few Clouds 2600 ft
2018/08/20 17:53 KSJC 201753Z 00000KT 7SM FEW026 18/12 A2993 RMK AO2 SLP134 FU FEW026 T01780117 10183 20122 50003
KDVO - Novato/Gnoss Fld, California, USA
Distance from station: NW 34mi, 54km
Updated: Mon, 20-Aug-2018 10:55am PDT
Overcast
Overcast
 Wind from calm
Wind: Calm
Temperature: 61°F , 16°C
Dew Point: 54°F , 12°C
Humidity: 77%
Barometer: 29.92 inHg , 1013.2 hPa
Clouds: Overcast
Visibility: 8 miles , 13 km
Cloud details: Overcast 1300 ft
2018/08/20 17:55 KDVO 201755Z AUTO 00000KT 8SM OVC013 16/12 A2992 RMK AO2
 
KRHV - San Jose/Reid, California, USA
Distance from station: SSE 37mi, 59km
Updated: Mon, 20-Aug-2018 10:47am PDT
Few Clouds
Few Clouds
 Wind from S
Wind: S 7 mph , 11 km/h
Temperature: 66°F , 19°C
Dew Point: 54°F , 12°C
Humidity: 64%
Barometer: 29.91 inHg , 1012.9 hPa
Clouds: Few Clouds
Visibility: 7 miles , 11 km
Cloud details: Few Clouds 1500 ft
2018/08/20 17:47 KRHV 201747Z 18006KT 7SM FEW015 19/12 A2991
KSUU - Travis Afb/Fairf, California, USA
Distance from station: NNE 37mi, 59km
Updated: Mon, 20-Aug-2018 10:58am PDT
Clear
Clear
 Wind from WSW
Wind: WSW 21 mph , 33 km/h
Temperature: 68°F , 20°C
Dew Point: 54°F , 12°C
Humidity: 60%
Barometer: 29.86 inHg , 1011.2 hPa
Clouds: Clear
Visibility: 10 miles , 16 km
2018/08/20 17:58 KSUU 201758Z AUTO 24018KT 10SM CLR 20/12 A2986 RMK AO2 SLP118 T02010116 10201 20137 50004 $
KO69 - Petaluma, California, USA
Distance from station: NW 41mi, 66km
Updated: Mon, 20-Aug-2018 10:55am PDT
Haze, Overcast
Haze, Overcast
 Wind from varies
Wind: varies 5 mph , 7 km/h
Temperature: 61°F , 16°C
Dew Point: 55°F , 13°C
Humidity: 83%
Barometer: 29.92 inHg , 1013.2 hPa
Summary: Haze
Clouds: Overcast
Visibility: 5 miles , 8 km
Cloud details: Overcast 1200 ft
2018/08/20 17:55 KO69 201755Z AUTO VRB04KT 5SM HZ OVC012 16/13 A2992 RMK A01
 
KVCB - Vacaville, California, USA
Distance from station: NNE 44mi, 71km
Updated: Mon, 20-Aug-2018 10:53am PDT
Clear
Clear
 Wind from SW
Wind: SW 6 mph , 9 km/h
Temperature: 79°F , 26°C
Dew Point: 54°F , 12°C
Humidity: 42%
Barometer: 29.88 inHg , 1011.9 hPa
Clouds: Clear
Visibility: 9 miles , 14 km
2018/08/20 17:53 KVCB 201753Z AUTO 23005KT 9SM CLR 26/12 A2988 RMK AO2 SLP116 T02560122 10256 20139 50003 $